sensor_id;sensor_type;location;lat;lon;timestamp;pressure;altitude;pressure_sealevel;temperature;humidity
20971;BME280;10644;48.834;10.088;2023-01-26T00:05:12;97167.00;;;4.64;63.31
20971;BME280;10644;48.834;10.088;2023-01-26T00:08:01;97172.38;;;4.50;63.84
20971;BME280;10644;48.834;10.088;2023-01-26T00:10:28;97171.44;;;4.54;64.22
20971;BME280;10644;48.834;10.088;2023-01-26T00:13:31;97173.03;;;4.58;64.27
20971;BME280;10644;48.834;10.088;2023-01-26T00:15:57;97157.41;;;4.76;63.42
20971;BME280;10644;48.834;10.088;2023-01-26T00:18:30;97157.16;;;4.85;62.89
20971;BME280;10644;48.834;10.088;2023-01-26T00:21:07;97158.78;;;4.89;63.53
20971;BME280;10644;48.834;10.088;2023-01-26T00:23:34;97154.13;;;5.06;62.87
20971;BME280;10644;48.834;10.088;2023-01-26T00:26:16;97130.88;;;5.21;62.54
20971;BME280;10644;48.834;10.088;2023-01-26T00:28:44;97127.38;;;5.25;61.90
20971;BME280;10644;48.834;10.088;2023-01-26T00:31:21;97137.25;;;5.37;62.16
20971;BME280;10644;48.834;10.088;2023-01-26T00:34:10;97135.66;;;5.33;62.20
20971;BME280;10644;48.834;10.088;2023-01-26T00:36:36;97122.13;;;5.01;62.42
20971;BME280;10644;48.834;10.088;2023-01-26T00:39:08;97126.00;;;4.80;63.15
20971;BME280;10644;48.834;10.088;2023-01-26T00:41:57;97138.84;;;4.74;63.66
20971;BME280;10644;48.834;10.088;2023-01-26T00:45:15;97137.13;;;4.76;63.13
20971;BME280;10644;48.834;10.088;2023-01-26T00:47:52;97136.00;;;4.51;64.44
20971;BME280;10644;48.834;10.088;2023-01-26T00:50:17;97112.53;;;4.43;64.25
20971;BME280;10644;48.834;10.088;2023-01-26T00:52:50;97111.53;;;4.50;64.26
20971;BME280;10644;48.834;10.088;2023-01-26T00:55:26;97115.81;;;4.48;64.51
20971;BME280;10644;48.834;10.088;2023-01-26T00:58:02;97109.28;;;4.38;64.64
20971;BME280;10644;48.834;10.088;2023-01-26T01:00:38;97116.00;;;4.39;65.04
20971;BME280;10644;48.834;10.088;2023-01-26T01:03:26;97114.22;;;4.43;64.39
20971;BME280;10644;48.834;10.088;2023-01-26T01:05:51;97109.41;;;4.32;65.00
20971;BME280;10644;48.834;10.088;2023-01-26T01:08:19;97102.53;;;4.37;64.69
20971;BME280;10644;48.834;10.088;2023-01-26T01:10:48;97111.19;;;4.29;64.77
20971;BME280;10644;48.834;10.088;2023-01-26T01:13:16;97105.56;;;4.51;63.99
20971;BME280;10644;48.834;10.088;2023-01-26T01:15:41;97104.25;;;4.35;64.34
20971;BME280;10644;48.834;10.088;2023-01-26T01:18:22;97106.06;;;4.67;63.93
20971;BME280;10644;48.834;10.088;2023-01-26T01:20:57;97083.94;;;4.72;63.61
20971;BME280;10644;48.834;10.088;2023-01-26T01:23:53;97088.69;;;4.50;64.45
20971;BME280;10644;48.834;10.088;2023-01-26T01:26:20;97070.22;;;4.45;63.89
20971;BME280;10644;48.834;10.088;2023-01-26T01:28:55;97076.28;;;4.40;64.48
20971;BME280;10644;48.834;10.088;2023-01-26T01:31:37;97069.16;;;4.55;64.08
20971;BME280;10644;48.834;10.088;2023-01-26T01:34:22;97078.81;;;4.73;63.56
20971;BME280;10644;48.834;10.088;2023-01-26T01:36:48;97078.34;;;4.59;63.88
20971;BME280;10644;48.834;10.088;2023-01-26T01:39:31;97067.78;;;4.42;64.41
20971;BME280;10644;48.834;10.088;2023-01-26T01:42:20;97069.41;;;4.45;64.40
20971;BME280;10644;48.834;10.088;2023-01-26T01:47:56;97069.88;;;4.60;64.04
20971;BME280;10644;48.834;10.088;2023-01-26T01:50:38;97064.50;;;4.72;63.99
20971;BME280;10644;48.834;10.088;2023-01-26T01:53:16;97060.66;;;4.56;63.77
20971;BME280;10644;48.834;10.088;2023-01-26T01:55:57;97050.47;;;4.59;64.10
20971;BME280;10644;48.834;10.088;2023-01-26T01:58:28;97053.31;;;4.79;63.93
20971;BME280;10644;48.834;10.088;2023-01-26T02:00:59;97058.31;;;4.82;63.55
20971;BME280;10644;48.834;10.088;2023-01-26T02:03:41;97047.78;;;4.64;63.85
20971;BME280;10644;48.834;10.088;2023-01-26T02:06:32;97053.97;;;4.54;64.24
20971;BME280;10644;48.834;10.088;2023-01-26T02:09:00;97047.94;;;4.58;63.99
20971;BME280;10644;48.834;10.088;2023-01-26T02:11:32;97052.94;;;4.61;63.99
20971;BME280;10644;48.834;10.088;2023-01-26T02:14:22;97042.41;;;4.76;63.46
20971;BME280;10644;48.834;10.088;2023-01-26T02:16:50;97036.03;;;4.61;63.71
20971;BME280;10644;48.834;10.088;2023-01-26T02:19:38;97030.88;;;4.64;63.72
20971;BME280;10644;48.834;10.088;2023-01-26T02:22:15;97027.78;;;4.53;64.04
20971;BME280;10644;48.834;10.088;2023-01-26T02:24:58;97021.47;;;4.34;64.55
20971;BME280;10644;48.834;10.088;2023-01-26T02:27:29;97012.16;;;4.36;64.50
20971;BME280;10644;48.834;10.088;2023-01-26T02:29:57;97011.28;;;4.37;64.16
20971;BME280;10644;48.834;10.088;2023-01-26T02:32:42;96998.25;;;4.51;64.03
20971;BME280;10644;48.834;10.088;2023-01-26T02:35:08;97000.84;;;4.49;63.88
20971;BME280;10644;48.834;10.088;2023-01-26T02:37:34;97008.19;;;4.58;63.90
20971;BME280;10644;48.834;10.088;2023-01-26T02:42:56;96999.22;;;4.79;62.83
20971;BME280;10644;48.834;10.088;2023-01-26T02:48:20;97003.94;;;4.60;63.63
20971;BME280;10644;48.834;10.088;2023-01-26T02:54:15;97008.38;;;4.83;63.04
20971;BME280;10644;48.834;10.088;2023-01-26T02:57:11;96999.66;;;4.93;62.94
20971;BME280;10644;48.834;10.088;2023-01-26T02:59:59;96995.81;;;5.10;62.91
20971;BME280;10644;48.834;10.088;2023-01-26T03:02:26;96997.28;;;5.17;62.29
20971;BME280;10644;48.834;10.088;2023-01-26T03:05:03;96997.06;;;5.26;62.03
20971;BME280;10644;48.834;10.088;2023-01-26T03:07:34;96991.09;;;5.27;61.80
20971;BME280;10644;48.834;10.088;2023-01-26T03:10:24;96994.22;;;5.35;62.08
20971;BME280;10644;48.834;10.088;2023-01-26T03:13:11;96996.94;;;5.29;61.54
20971;BME280;10644;48.834;10.088;2023-01-26T03:15:42;96994.75;;;5.17;61.76
20971;BME280;10644;48.834;10.088;2023-01-26T03:18:18;96986.13;;;5.23;61.97
20971;BME280;10644;48.834;10.088;2023-01-26T03:21:14;96990.63;;;5.13;61.56
20971;BME280;10644;48.834;10.088;2023-01-26T03:24:11;97006.13;;;5.04;62.36
20971;BME280;10644;48.834;10.088;2023-01-26T03:27:18;97007.63;;;5.11;61.71
20971;BME280;10644;48.834;10.088;2023-01-26T03:30:17;97000.72;;;5.16;62.56
20971;BME280;10644;48.834;10.088;2023-01-26T03:32:42;97004.13;;;5.15;61.58
20971;BME280;10644;48.834;10.088;2023-01-26T03:35:22;96996.81;;;5.03;61.95
20971;BME280;10644;48.834;10.088;2023-01-26T03:38:05;96997.81;;;4.99;62.24
20971;BME280;10644;48.834;10.088;2023-01-26T03:40:39;96990.78;;;5.09;62.21
20971;BME280;10644;48.834;10.088;2023-01-26T03:43:23;96996.41;;;5.18;61.86
20971;BME280;10644;48.834;10.088;2023-01-26T03:46:07;96992.88;;;5.24;61.58
20971;BME280;10644;48.834;10.088;2023-01-26T03:48:52;96990.22;;;5.28;61.34
20971;BME280;10644;48.834;10.088;2023-01-26T03:51:42;96982.91;;;5.18;61.24
20971;BME280;10644;48.834;10.088;2023-01-26T03:54:30;96992.22;;;5.17;61.16
20971;BME280;10644;48.834;10.088;2023-01-26T03:57:30;96996.31;;;4.92;61.38
20971;BME280;10644;48.834;10.088;2023-01-26T03:59:58;96991.31;;;4.89;61.88
20971;BME280;10644;48.834;10.088;2023-01-26T04:02:33;96987.34;;;4.79;61.59
20971;BME280;10644;48.834;10.088;2023-01-26T04:05:39;96986.53;;;4.79;61.95
20971;BME280;10644;48.834;10.088;2023-01-26T04:08:23;96977.91;;;4.52;62.45
20971;BME280;10644;48.834;10.088;2023-01-26T04:10:54;96980.47;;;4.52;62.81
20971;BME280;10644;48.834;10.088;2023-01-26T04:13:25;96976.56;;;4.39;62.66
20971;BME280;10644;48.834;10.088;2023-01-26T04:16:10;96967.63;;;4.26;63.42
20971;BME280;10644;48.834;10.088;2023-01-26T04:19:03;96968.53;;;4.24;63.46
20971;BME280;10644;48.834;10.088;2023-01-26T04:21:47;96963.91;;;4.06;63.87
20971;BME280;10644;48.834;10.088;2023-01-26T04:24:30;96964.81;;;4.03;63.84
20971;BME280;10644;48.834;10.088;2023-01-26T04:27:14;96967.78;;;4.20;63.54
20971;BME280;10644;48.834;10.088;2023-01-26T04:29:43;96976.59;;;4.38;63.49
20971;BME280;10644;48.834;10.088;2023-01-26T04:32:09;96967.31;;;4.38;63.29
20971;BME280;10644;48.834;10.088;2023-01-26T04:34:52;96973.88;;;4.45;63.08
20971;BME280;10644;48.834;10.088;2023-01-26T04:37:17;96973.72;;;4.51;62.57
20971;BME280;10644;48.834;10.088;2023-01-26T04:40:05;96970.47;;;4.46;61.96
20971;BME280;10644;48.834;10.088;2023-01-26T04:42:31;96974.56;;;4.18;62.92
20971;BME280;10644;48.834;10.088;2023-01-26T04:45:04;96973.44;;;4.30;62.97
20971;BME280;10644;48.834;10.088;2023-01-26T04:47:30;96973.81;;;4.48;61.95
20971;BME280;10644;48.834;10.088;2023-01-26T04:50:03;96975.38;;;4.52;61.74
20971;BME280;10644;48.834;10.088;2023-01-26T04:52:31;96962.25;;;4.38;61.31
20971;BME280;10644;48.834;10.088;2023-01-26T04:54:56;96961.22;;;4.45;61.48
20971;BME280;10644;48.834;10.088;2023-01-26T04:57:27;96961.75;;;4.24;61.16
20971;BME280;10644;48.834;10.088;2023-01-26T04:59:55;96956.78;;;4.20;61.43
20971;BME280;10644;48.834;10.088;2023-01-26T05:02:20;96960.44;;;4.43;61.63
20971;BME280;10644;48.834;10.088;2023-01-26T05:04:52;96958.44;;;4.54;61.11
20971;BME280;10644;48.834;10.088;2023-01-26T05:07:19;96959.16;;;4.59;60.94
20971;BME280;10644;48.834;10.088;2023-01-26T05:10:03;96953.75;;;4.39;60.55
20971;BME280;10644;48.834;10.088;2023-01-26T05:12:37;96950.44;;;4.37;61.16
20971;BME280;10644;48.834;10.088;2023-01-26T05:15:18;96955.66;;;4.31;61.19
20971;BME280;10644;48.834;10.088;2023-01-26T05:17:52;96962.44;;;4.31;61.46
20971;BME280;10644;48.834;10.088;2023-01-26T05:20:18;96953.50;;;4.16;61.66
20971;BME280;10644;48.834;10.088;2023-01-26T05:22:52;96960.91;;;4.25;62.06
20971;BME280;10644;48.834;10.088;2023-01-26T05:25:34;96958.44;;;4.54;61.78
20971;BME280;10644;48.834;10.088;2023-01-26T05:28:04;96955.53;;;4.68;61.35
20971;BME280;10644;48.834;10.088;2023-01-26T05:30:30;96964.56;;;4.78;60.84
20971;BME280;10644;48.834;10.088;2023-01-26T05:33:04;96959.03;;;4.94;60.74
20971;BME280;10644;48.834;10.088;2023-01-26T05:35:34;96957.19;;;4.99;60.60
20971;BME280;10644;48.834;10.088;2023-01-26T05:38:17;96965.41;;;5.07;60.47
20971;BME280;10644;48.834;10.088;2023-01-26T05:40:50;96965.19;;;5.16;60.53
20971;BME280;10644;48.834;10.088;2023-01-26T05:43:22;96963.34;;;5.21;60.16
20971;BME280;10644;48.834;10.088;2023-01-26T05:45:49;96969.91;;;5.28;60.33
20971;BME280;10644;48.834;10.088;2023-01-26T05:48:14;96967.34;;;5.28;60.23
20971;BME280;10644;48.834;10.088;2023-01-26T05:50:53;96967.44;;;4.96;59.74
20971;BME280;10644;48.834;10.088;2023-01-26T05:53:47;96959.72;;;5.01;60.22
20971;BME280;10644;48.834;10.088;2023-01-26T05:56:34;96973.47;;;4.92;60.58
20971;BME280;10644;48.834;10.088;2023-01-26T05:59:09;96961.44;;;4.68;60.48
20971;BME280;10644;48.834;10.088;2023-01-26T06:01:35;96968.09;;;4.72;60.69
20971;BME280;10644;48.834;10.088;2023-01-26T06:04:12;96982.81;;;4.90;61.06
20971;BME280;10644;48.834;10.088;2023-01-26T06:06:44;96967.34;;;4.99;60.12
20971;BME280;10644;48.834;10.088;2023-01-26T06:09:09;96982.41;;;5.05;60.33
20971;BME280;10644;48.834;10.088;2023-01-26T06:11:37;96971.31;;;5.09;60.16
20971;BME280;10644;48.834;10.088;2023-01-26T06:14:11;96975.50;;;5.10;60.29
20971;BME280;10644;48.834;10.088;2023-01-26T06:16:40;96974.66;;;5.10;60.19
20971;BME280;10644;48.834;10.088;2023-01-26T06:19:06;96987.13;;;5.17;59.91
20971;BME280;10644;48.834;10.088;2023-01-26T06:22:00;96986.97;;;5.23;60.59
20971;BME280;10644;48.834;10.088;2023-01-26T06:24:26;96990.28;;;5.25;60.03
20971;BME280;10644;48.834;10.088;2023-01-26T06:26:53;96984.63;;;5.16;60.46
20971;BME280;10644;48.834;10.088;2023-01-26T06:29:22;96977.00;;;5.17;60.26
20971;BME280;10644;48.834;10.088;2023-01-26T06:31:55;96981.81;;;5.26;60.31
20971;BME280;10644;48.834;10.088;2023-01-26T06:34:36;96981.69;;;5.31;60.41
20971;BME280;10644;48.834;10.088;2023-01-26T06:37:10;96982.56;;;5.30;59.98
20971;BME280;10644;48.834;10.088;2023-01-26T06:39:50;96983.38;;;5.30;60.04
20971;BME280;10644;48.834;10.088;2023-01-26T06:42:22;96981.72;;;5.29;60.02
20971;BME280;10644;48.834;10.088;2023-01-26T06:44:54;96984.94;;;5.34;60.10
20971;BME280;10644;48.834;10.088;2023-01-26T06:50:39;96968.25;;;5.27;60.31
20971;BME280;10644;48.834;10.088;2023-01-26T06:56:20;96969.47;;;5.43;60.18
20971;BME280;10644;48.834;10.088;2023-01-26T06:58:48;96958.91;;;5.28;59.60
20971;BME280;10644;48.834;10.088;2023-01-26T07:01:36;96978.41;;;5.27;60.01
20971;BME280;10644;48.834;10.088;2023-01-26T07:04:15;96970.75;;;5.29;60.09
20971;BME280;10644;48.834;10.088;2023-01-26T07:06:56;96967.31;;;5.30;60.57
20971;BME280;10644;48.834;10.088;2023-01-26T07:09:22;96965.66;;;5.29;59.95
20971;BME280;10644;48.834;10.088;2023-01-26T07:11:49;96971.56;;;5.29;59.65
20971;BME280;10644;48.834;10.088;2023-01-26T07:14:19;96978.47;;;5.24;59.58
20971;BME280;10644;48.834;10.088;2023-01-26T07:16:45;96972.09;;;5.11;60.37
20971;BME280;10644;48.834;10.088;2023-01-26T07:19:12;96975.41;;;5.13;60.53
20971;BME280;10644;48.834;10.088;2023-01-26T07:21:39;96962.53;;;5.19;60.28
20971;BME280;10644;48.834;10.088;2023-01-26T07:24:08;96977.75;;;5.19;59.99
20971;BME280;10644;48.834;10.088;2023-01-26T07:26:47;96973.59;;;5.17;60.30
20971;BME280;10644;48.834;10.088;2023-01-26T07:29:12;96970.59;;;5.04;59.85
20971;BME280;10644;48.834;10.088;2023-01-26T07:31:37;96972.66;;;4.90;60.17
20971;BME280;10644;48.834;10.088;2023-01-26T07:34:13;96975.16;;;4.61;61.20
20971;BME280;10644;48.834;10.088;2023-01-26T07:36:50;96969.41;;;4.55;61.14
20971;BME280;10644;48.834;10.088;2023-01-26T07:39:16;96972.75;;;4.23;62.50
20971;BME280;10644;48.834;10.088;2023-01-26T07:41:44;96963.84;;;4.42;61.97
20971;BME280;10644;48.834;10.088;2023-01-26T07:44:10;96965.69;;;4.68;61.75
20971;BME280;10644;48.834;10.088;2023-01-26T07:46:57;96972.66;;;4.90;61.88
20971;BME280;10644;48.834;10.088;2023-01-26T07:49:22;96960.28;;;5.10;61.21
20971;BME280;10644;48.834;10.088;2023-01-26T07:51:50;96961.75;;;5.17;59.74
20971;BME280;10644;48.834;10.088;2023-01-26T07:54:16;96960.28;;;5.10;59.48
20971;BME280;10644;48.834;10.088;2023-01-26T07:56:43;96956.22;;;5.03;59.41
20971;BME280;10644;48.834;10.088;2023-01-26T07:59:10;96960.09;;;4.87;60.01
20971;BME280;10644;48.834;10.088;2023-01-26T08:01:47;96955.00;;;4.87;60.39
20971;BME280;10644;48.834;10.088;2023-01-26T08:04:16;96949.56;;;5.01;59.66
20971;BME280;10644;48.834;10.088;2023-01-26T08:06:50;96959.41;;;5.11;59.93
20971;BME280;10644;48.834;10.088;2023-01-26T08:09:47;96960.09;;;5.16;59.65
20971;BME280;10644;48.834;10.088;2023-01-26T08:12:18;96951.28;;;5.28;59.57
20971;BME280;10644;48.834;10.088;2023-01-26T08:14:49;96947.56;;;5.39;58.61
20971;BME280;10644;48.834;10.088;2023-01-26T08:17:15;96942.31;;;5.45;58.19
20971;BME280;10644;48.834;10.088;2023-01-26T08:19:45;96949.88;;;5.47;57.73
20971;BME280;10644;48.834;10.088;2023-01-26T08:22:12;96939.91;;;5.41;57.85
20971;BME280;10644;48.834;10.088;2023-01-26T08:24:42;96942.75;;;5.30;57.94
20971;BME280;10644;48.834;10.088;2023-01-26T08:27:10;96958.34;;;5.18;58.11
20971;BME280;10644;48.834;10.088;2023-01-26T08:29:35;96945.50;;;5.23;58.20
20971;BME280;10644;48.834;10.088;2023-01-26T08:32:19;96934.34;;;5.28;58.22
20971;BME280;10644;48.834;10.088;2023-01-26T08:34:51;96927.69;;;5.24;58.50
20971;BME280;10644;48.834;10.088;2023-01-26T08:37:24;96942.75;;;5.30;58.14
20971;BME280;10644;48.834;10.088;2023-01-26T08:39:58;96942.56;;;5.36;58.26
20971;BME280;10644;48.834;10.088;2023-01-26T08:42:23;96939.06;;;5.40;58.13
20971;BME280;10644;48.834;10.088;2023-01-26T08:44:55;96944.59;;;5.54;58.51
20971;BME280;10644;48.834;10.088;2023-01-26T08:47:32;96940.34;;;5.53;58.34
20971;BME280;10644;48.834;10.088;2023-01-26T08:49:57;96936.78;;;5.60;58.04
20971;BME280;10644;48.834;10.088;2023-01-26T08:55:29;96933.63;;;5.52;57.77
20971;BME280;10644;48.834;10.088;2023-01-26T08:58:03;96934.13;;;5.36;57.99
20971;BME280;10644;48.834;10.088;2023-01-26T09:01:02;96933.44;;;5.31;58.02
20971;BME280;10644;48.834;10.088;2023-01-26T09:03:34;96942.50;;;5.39;58.18
20971;BME280;10644;48.834;10.088;2023-01-26T09:06:10;96935.56;;;5.44;58.02
20971;BME280;10644;48.834;10.088;2023-01-26T09:08:44;96932.03;;;5.48;57.65
20971;BME280;10644;48.834;10.088;2023-01-26T09:11:22;96931.78;;;5.57;57.60
20971;BME280;10644;48.834;10.088;2023-01-26T09:13:50;96939.44;;;5.28;57.97
20971;BME280;10644;48.834;10.088;2023-01-26T09:16:22;96925.84;;;5.29;58.33
20971;BME280;10644;48.834;10.088;2023-01-26T09:19:01;96927.44;;;5.33;58.50
20971;BME280;10644;48.834;10.088;2023-01-26T09:21:28;96937.47;;;5.36;58.19
20971;BME280;10644;48.834;10.088;2023-01-26T09:23:55;96930.50;;;5.44;58.40
20971;BME280;10644;48.834;10.088;2023-01-26T09:26:20;96924.84;;;5.35;57.99
20971;BME280;10644;48.834;10.088;2023-01-26T09:28:53;96935.16;;;5.01;57.99
20971;BME280;10644;48.834;10.088;2023-01-26T09:31:18;96926.22;;;5.17;58.16
20971;BME280;10644;48.834;10.088;2023-01-26T09:33:51;96929.09;;;5.34;58.34
20971;BME280;10644;48.834;10.088;2023-01-26T09:36:20;96922.06;;;5.42;57.33
20971;BME280;10644;48.834;10.088;2023-01-26T09:38:45;96930.06;;;5.30;57.90
20971;BME280;10644;48.834;10.088;2023-01-26T09:44:25;96937.25;;;5.16;58.65
20971;BME280;10644;48.834;10.088;2023-01-26T09:49:58;96951.72;;;4.84;59.21
20971;BME280;10644;48.834;10.088;2023-01-26T09:52:32;96949.13;;;4.85;59.12
20971;BME280;10644;48.834;10.088;2023-01-26T09:55:04;96934.47;;;4.95;58.96
20971;BME280;10644;48.834;10.088;2023-01-26T09:58:14;96939.22;;;5.07;58.52
20971;BME280;10644;48.834;10.088;2023-01-26T10:00:51;96937.91;;;4.63;59.10
20971;BME280;10644;48.834;10.088;2023-01-26T10:06:27;96940.38;;;4.66;59.23
20971;BME280;10644;48.834;10.088;2023-01-26T10:08:57;96944.88;;;4.87;58.96
20971;BME280;10644;48.834;10.088;2023-01-26T10:11:35;96945.22;;;5.04;58.73
20971;BME280;10644;48.834;10.088;2023-01-26T10:14:34;96944.56;;;4.98;58.72
20971;BME280;10644;48.834;10.088;2023-01-26T10:20:26;96954.31;;;4.82;59.51
20971;BME280;10644;48.834;10.088;2023-01-26T10:23:00;96946.34;;;4.94;59.47
20971;BME280;10644;48.834;10.088;2023-01-26T10:25:39;96947.69;;;5.06;59.45
20971;BME280;10644;48.834;10.088;2023-01-26T10:28:33;96948.38;;;5.12;58.73
20971;BME280;10644;48.834;10.088;2023-01-26T10:31:14;96948.88;;;4.94;58.31
20971;BME280;10644;48.834;10.088;2023-01-26T10:34:00;96950.41;;;5.00;58.87
20971;BME280;10644;48.834;10.088;2023-01-26T10:36:31;96951.63;;;4.87;58.57
20971;BME280;10644;48.834;10.088;2023-01-26T10:39:22;96952.47;;;4.87;59.96
20971;BME280;10644;48.834;10.088;2023-01-26T10:41:59;96956.75;;;4.85;60.22
20971;BME280;10644;48.834;10.088;2023-01-26T10:44:33;96952.31;;;4.93;60.52
20971;BME280;10644;48.834;10.088;2023-01-26T10:47:17;96947.81;;;4.72;60.89
20971;BME280;10644;48.834;10.088;2023-01-26T10:50:21;96947.00;;;4.40;61.43
20971;BME280;10644;48.834;10.088;2023-01-26T10:52:58;96948.13;;;4.28;61.33
20971;BME280;10644;48.834;10.088;2023-01-26T10:55:33;96949.31;;;4.15;62.98
20971;BME280;10644;48.834;10.088;2023-01-26T10:58:00;96946.44;;;4.29;62.23
20971;BME280;10644;48.834;10.088;2023-01-26T11:00:33;96953.91;;;4.33;62.46
20971;BME280;10644;48.834;10.088;2023-01-26T11:06:16;96946.88;;;4.44;61.33
20971;BME280;10644;48.834;10.088;2023-01-26T11:08:50;96941.63;;;4.18;62.22
20971;BME280;10644;48.834;10.088;2023-01-26T11:11:26;96942.66;;;4.45;62.03
20971;BME280;10644;48.834;10.088;2023-01-26T11:14:15;96942.91;;;4.34;63.38
20971;BME280;10644;48.834;10.088;2023-01-26T11:17:13;96934.19;;;4.44;62.15
20971;BME280;10644;48.834;10.088;2023-01-26T11:26:06;96922.88;;;4.25;62.03
20971;BME280;10644;48.834;10.088;2023-01-26T11:29:18;96926.44;;;4.50;61.42
20971;BME280;10644;48.834;10.088;2023-01-26T11:50:46;96897.03;;;4.43;60.81
20971;BME280;10644;48.834;10.088;2023-01-26T11:56:47;96904.06;;;4.34;61.04
20971;BME280;10644;48.834;10.088;2023-01-26T12:05:30;96892.19;;;4.36;61.47
20971;BME280;10644;48.834;10.088;2023-01-26T12:11:07;96890.00;;;4.83;60.56
20971;BME280;10644;48.834;10.088;2023-01-26T12:26:08;96871.50;;;4.80;59.69
20971;BME280;10644;48.834;10.088;2023-01-26T12:31:56;96859.44;;;4.86;60.13
20971;BME280;10644;48.834;10.088;2023-01-26T12:35:03;96850.81;;;4.93;59.73
20971;BME280;10644;48.834;10.088;2023-01-26T12:38:02;96849.16;;;4.92;59.52
20971;BME280;10644;48.834;10.088;2023-01-26T12:41:15;96836.50;;;4.91;59.83
20971;BME280;10644;48.834;10.088;2023-01-26T12:44:31;96824.88;;;4.84;59.62
20971;BME280;10644;48.834;10.088;2023-01-26T12:57:39;96839.66;;;5.26;59.38
20971;BME280;10644;48.834;10.088;2023-01-26T13:00:36;96828.09;;;5.16;58.73
20971;BME280;10644;48.834;10.088;2023-01-26T13:04:02;96827.53;;;4.79;59.53
20971;BME280;10644;48.834;10.088;2023-01-26T13:07:24;96822.38;;;4.82;59.09
20971;BME280;10644;48.834;10.088;2023-01-26T14:00:28;96839.16;;;4.57;61.14
20971;BME280;10644;48.834;10.088;2023-01-26T15:03:22;96865.56;;;4.50;61.03
20971;BME280;10644;48.834;10.088;2023-01-26T16:21:39;96872.44;;;4.15;61.43
20971;BME280;10644;48.834;10.088;2023-01-26T16:27:40;96883.66;;;4.38;61.45
20971;BME280;10644;48.834;10.088;2023-01-26T16:30:33;96880.88;;;4.47;60.59
20971;BME280;10644;48.834;10.088;2023-01-26T16:33:19;96881.03;;;4.41;61.43
20971;BME280;10644;48.834;10.088;2023-01-26T16:35:58;96874.56;;;4.31;61.96
20971;BME280;10644;48.834;10.088;2023-01-26T16:38:38;96883.41;;;4.47;63.13
20971;BME280;10644;48.834;10.088;2023-01-26T16:47:17;96884.78;;;4.27;61.56
20971;BME280;10644;48.834;10.088;2023-01-26T16:49:44;96881.44;;;4.26;61.44
20971;BME280;10644;48.834;10.088;2023-01-26T16:52:19;96871.03;;;4.35;61.22
20971;BME280;10644;48.834;10.088;2023-01-26T16:54:56;96871.19;;;4.31;60.98
20971;BME280;10644;48.834;10.088;2023-01-26T16:57:30;96879.44;;;4.39;61.40
20971;BME280;10644;48.834;10.088;2023-01-26T17:00:04;96876.81;;;4.10;61.17
20971;BME280;10644;48.834;10.088;2023-01-26T17:02:38;96867.69;;;4.03;61.40
20971;BME280;10644;48.834;10.088;2023-01-26T17:05:26;96888.47;;;4.17;61.74
20971;BME280;10644;48.834;10.088;2023-01-26T17:08:01;96888.41;;;4.18;61.49
20971;BME280;10644;48.834;10.088;2023-01-26T17:10:29;96888.25;;;4.24;61.09
20971;BME280;10644;48.834;10.088;2023-01-26T17:13:14;96893.38;;;3.89;62.00
20971;BME280;10644;48.834;10.088;2023-01-26T17:16:13;96895.00;;;3.92;62.84
20971;BME280;10644;48.834;10.088;2023-01-26T17:22:12;96889.63;;;4.04;61.53
20971;BME280;10644;48.834;10.088;2023-01-26T17:24:56;96900.34;;;4.13;61.84
20971;BME280;10644;48.834;10.088;2023-01-26T17:27:35;96907.44;;;4.02;62.03
20971;BME280;10644;48.834;10.088;2023-01-26T17:30:17;96903.28;;;4.00;61.87
20971;BME280;10644;48.834;10.088;2023-01-26T17:32:45;96904.25;;;3.93;62.08
20971;BME280;10644;48.834;10.088;2023-01-26T17:35:24;96907.13;;;3.79;62.98
20971;BME280;10644;48.834;10.088;2023-01-26T17:37:55;96902.31;;;3.70;62.45
20971;BME280;10644;48.834;10.088;2023-01-26T17:40:57;96909.06;;;3.70;62.61
20971;BME280;10644;48.834;10.088;2023-01-26T17:46:57;96905.28;;;3.52;62.94
20971;BME280;10644;48.834;10.088;2023-01-26T17:49:55;96908.47;;;3.59;63.31
20971;BME280;10644;48.834;10.088;2023-01-26T17:55:30;96904.09;;;3.67;62.88
20971;BME280;10644;48.834;10.088;2023-01-26T17:58:28;96898.66;;;3.45;63.74
20971;BME280;10644;48.834;10.088;2023-01-26T18:01:25;96905.56;;;3.40;63.85
20971;BME280;10644;48.834;10.088;2023-01-26T18:07:14;96885.81;;;3.54;63.27
20971;BME280;10644;48.834;10.088;2023-01-26T18:09:40;96896.22;;;3.77;63.03
20971;BME280;10644;48.834;10.088;2023-01-26T18:12:05;96880.28;;;3.72;63.20
20971;BME280;10644;48.834;10.088;2023-01-26T18:14:46;96890.06;;;3.87;62.76
20971;BME280;10644;48.834;10.088;2023-01-26T18:17:22;96889.56;;;3.73;63.18
20971;BME280;10644;48.834;10.088;2023-01-26T18:19:58;96895.03;;;3.90;62.86
20971;BME280;10644;48.834;10.088;2023-01-26T18:22:25;96888.66;;;4.09;62.78
20971;BME280;10644;48.834;10.088;2023-01-26T18:25:06;96890.09;;;4.19;61.98
20971;BME280;10644;48.834;10.088;2023-01-26T18:27:50;96880.09;;;4.13;62.13
20971;BME280;10644;48.834;10.088;2023-01-26T18:30:16;96883.81;;;4.32;61.88
20971;BME280;10644;48.834;10.088;2023-01-26T18:32:44;96886.94;;;4.42;61.30
20971;BME280;10644;48.834;10.088;2023-01-26T18:35:15;96886.81;;;4.46;60.86
20971;BME280;10644;48.834;10.088;2023-01-26T18:38:04;96894.25;;;4.52;60.80
20971;BME280;10644;48.834;10.088;2023-01-26T18:40:29;96892.59;;;4.51;60.69
20971;BME280;10644;48.834;10.088;2023-01-26T18:43:00;96885.69;;;4.56;61.02
20971;BME280;10644;48.834;10.088;2023-01-26T18:45:28;96894.00;;;4.61;60.42
20971;BME280;10644;48.834;10.088;2023-01-26T18:48:11;96886.97;;;4.40;61.26
20971;BME280;10644;48.834;10.088;2023-01-26T18:50:47;96903.31;;;4.30;61.13
20971;BME280;10644;48.834;10.088;2023-01-26T18:53:15;96902.03;;;4.14;61.59
20971;BME280;10644;48.834;10.088;2023-01-26T18:58:58;96901.31;;;4.41;60.99
20971;BME280;10644;48.834;10.088;2023-01-26T20:38:58;96889.41;;;4.45;60.24
20971;BME280;10644;48.834;10.088;2023-01-26T20:45:12;96895.84;;;4.56;60.02
20971;BME280;10644;48.834;10.088;2023-01-26T20:48:02;96895.22;;;4.48;60.40
20971;BME280;10644;48.834;10.088;2023-01-26T20:53:23;96901.63;;;4.29;60.61